Terminal Aerodrome Forecast
Issued by NWS Sterling, VA

Current Version | Previous Version | Graphics & Text | Print | Product List | Glossary On
Versions: 1 2 3 4 5 6 7 8 9 10 11 12 13 14
000
FTUS41 KLWX 280500
TAFMRB
TAF
KMRB 280520Z 2806/2906 23007KT P6SM VCTS SCT050CB BKN090
     FM281000 26010KT P6SM SCT050 BKN130
     FM281500 30012G24KT P6SM SCT025 BKN090
     FM290100 30008KT P6SM BKN250=

USA.gov is the U.S. government's official web portal to all federal, state and local government web resources and services.